sensor_id;sensor_type;location;lat;lon;timestamp;pressure;altitude;pressure_sealevel;temperature;humidity
70407;BME280;57821;52.202;0.154;2023-05-10T00:00:01;100969.31;;;11.66;100.00
70407;BME280;57821;52.202;0.154;2023-05-10T00:02:38;100964.06;;;11.72;100.00
70407;BME280;57821;52.202;0.154;2023-05-10T00:05:05;100949.44;;;11.59;100.00
70407;BME280;57821;52.202;0.154;2023-05-10T00:07:32;100965.84;;;11.74;100.00
70407;BME280;57821;52.202;0.154;2023-05-10T00:09:59;100958.91;;;11.69;100.00
70407;BME280;57821;52.202;0.154;2023-05-10T00:12:25;100950.25;;;11.70;100.00
70407;BME280;57821;52.202;0.154;2023-05-10T00:14:52;100967.53;;;11.77;100.00
70407;BME280;57821;52.202;0.154;2023-05-10T00:17:18;100965.81;;;11.71;100.00
70407;BME280;57821;52.202;0.154;2023-05-10T00:19:45;100950.25;;;11.70;100.00
70407;BME280;57821;52.202;0.154;2023-05-10T00:22:11;100963.22;;;11.71;100.00
70407;BME280;57821;52.202;0.154;2023-05-10T00:24:38;100962.34;;;11.71;100.00
70407;BME280;57821;52.202;0.154;2023-05-10T00:27:05;100962.34;;;11.71;100.00
70407;BME280;57821;52.202;0.154;2023-05-10T00:29:31;100974.47;;;11.78;100.00
70407;BME280;57821;52.202;0.154;2023-05-10T00:31:57;100964.09;;;11.78;100.00
70407;BME280;57821;52.202;0.154;2023-05-10T00:34:24;100972.75;;;11.80;100.00
70407;BME280;57821;52.202;0.154;2023-05-10T00:36:51;100963.22;;;11.80;100.00
70407;BME280;57821;52.202;0.154;2023-05-10T00:39:17;100969.28;;;11.81;100.00
70407;BME280;57821;52.202;0.154;2023-05-10T00:41:44;100969.28;;;11.81;100.00
70407;BME280;57821;52.202;0.154;2023-05-10T00:44:11;100972.72;;;11.84;100.00
70407;BME280;57821;52.202;0.154;2023-05-10T00:46:37;100977.91;;;11.86;100.00
70407;BME280;57821;52.202;0.154;2023-05-10T00:49:04;100975.31;;;11.86;100.00
70407;BME280;57821;52.202;0.154;2023-05-10T00:51:32;100959.75;;;11.78;100.00
70407;BME280;57821;52.202;0.154;2023-05-10T00:53:59;100979.63;;;11.87;100.00
70407;BME280;57821;52.202;0.154;2023-05-10T00:56:26;100976.19;;;11.88;100.00
70407;BME280;57821;52.202;0.154;2023-05-10T00:58:53;100970.97;;;11.85;100.00
70407;BME280;57821;52.202;0.154;2023-05-10T01:01:19;100964.94;;;11.80;100.00
70407;BME280;57821;52.202;0.154;2023-05-10T01:03:46;100975.31;;;11.87;100.00
70407;BME280;57821;52.202;0.154;2023-05-10T01:06:14;100976.19;;;11.85;100.00
70407;BME280;57821;52.202;0.154;2023-05-10T01:08:41;100968.41;;;11.79;100.00
70407;BME280;57821;52.202;0.154;2023-05-10T01:11:08;100987.41;;;11.90;100.00
70407;BME280;57821;52.202;0.154;2023-05-10T01:13:39;100985.69;;;11.87;100.00
70407;BME280;57821;52.202;0.154;2023-05-10T01:16:08;100984.88;;;11.81;100.00
70407;BME280;57821;52.202;0.154;2023-05-10T01:18:38;100978.84;;;11.76;100.00
70407;BME280;57821;52.202;0.154;2023-05-10T01:23:50;100990.09;;;11.75;100.00
70407;BME280;57821;52.202;0.154;2023-05-10T01:26:54;101004.78;;;11.79;100.00
70407;BME280;57821;52.202;0.154;2023-05-10T01:35:51;100997.03;;;11.64;100.00
70407;BME280;57821;52.202;0.154;2023-05-10T01:38:47;101007.44;;;11.64;100.00
70407;BME280;57821;52.202;0.154;2023-05-10T01:41:33;101003.13;;;11.57;100.00
70407;BME280;57821;52.202;0.154;2023-05-10T01:44:11;101002.28;;;11.48;100.00
70407;BME280;57821;52.202;0.154;2023-05-10T01:46:40;101000.56;;;11.44;100.00
70407;BME280;57821;52.202;0.154;2023-05-10T01:49:29;101004.06;;;11.40;100.00
70407;BME280;57821;52.202;0.154;2023-05-10T01:52:01;101010.97;;;11.32;100.00
70407;BME280;57821;52.202;0.154;2023-05-10T01:54:31;101011.84;;;11.25;100.00
70407;BME280;57821;52.202;0.154;2023-05-10T01:57:03;101011.88;;;11.24;100.00
70407;BME280;57821;52.202;0.154;2023-05-10T01:59:34;101023.13;;;11.23;100.00
70407;BME280;57821;52.202;0.154;2023-05-10T02:02:02;101015.38;;;11.12;100.00
70407;BME280;57821;52.202;0.154;2023-05-10T02:04:31;101005.84;;;11.02;100.00
70407;BME280;57821;52.202;0.154;2023-05-10T02:06:59;101024.88;;;11.01;100.00
70407;BME280;57821;52.202;0.154;2023-05-10T02:09:27;101024.03;;;10.94;100.00
70407;BME280;57821;52.202;0.154;2023-05-10T02:11:58;101020.59;;;10.88;100.00
70407;BME280;57821;52.202;0.154;2023-05-10T02:14:26;101019.72;;;10.80;100.00
70407;BME280;57821;52.202;0.154;2023-05-10T02:16:55;101025.78;;;10.76;100.00
70407;BME280;57821;52.202;0.154;2023-05-10T02:19:23;101032.69;;;10.75;100.00
70407;BME280;57821;52.202;0.154;2023-05-10T02:21:51;101033.56;;;10.69;100.00
70407;BME280;57821;52.202;0.154;2023-05-10T02:24:19;101030.94;;;10.60;100.00
70407;BME280;57821;52.202;0.154;2023-05-10T02:26:47;101042.19;;;10.59;100.00
70407;BME280;57821;52.202;0.154;2023-05-10T02:29:16;101037.88;;;10.54;100.00
70407;BME280;57821;52.202;0.154;2023-05-10T02:31:44;101026.63;;;10.41;100.00
70407;BME280;57821;52.202;0.154;2023-05-10T02:34:12;101030.94;;;10.41;100.00
70407;BME280;57821;52.202;0.154;2023-05-10T02:36:40;101036.13;;;10.36;100.00
70407;BME280;57821;52.202;0.154;2023-05-10T02:39:08;101029.19;;;10.24;100.00
70407;BME280;57821;52.202;0.154;2023-05-10T02:41:36;101035.22;;;10.19;100.00
70407;BME280;57821;52.202;0.154;2023-05-10T02:44:06;101035.19;;;10.13;100.00
70407;BME280;57821;52.202;0.154;2023-05-10T02:46:33;101051.56;;;10.13;100.00
70407;BME280;57821;52.202;0.154;2023-05-10T02:49:01;101044.66;;;10.06;100.00
70407;BME280;57821;52.202;0.154;2023-05-10T02:51:30;101042.03;;;9.99;100.00
70407;BME280;57821;52.202;0.154;2023-05-10T02:54:02;101041.13;;;9.90;100.00
70407;BME280;57821;52.202;0.154;2023-05-10T02:56:33;101056.69;;;9.92;100.00
70407;BME280;57821;52.202;0.154;2023-05-10T02:59:00;101051.47;;;9.84;100.00
70407;BME280;57821;52.202;0.154;2023-05-10T03:01:27;101056.63;;;9.80;100.00
70407;BME280;57821;52.202;0.154;2023-05-10T03:03:54;101051.44;;;9.72;100.00
70407;BME280;57821;52.202;0.154;2023-05-10T03:06:20;101057.44;;;9.68;100.00
70407;BME280;57821;52.202;0.154;2023-05-10T03:08:47;101057.41;;;9.62;100.00
70407;BME280;57821;52.202;0.154;2023-05-10T03:16:27;101065.19;;;9.59;100.00
70407;BME280;57821;52.202;0.154;2023-05-10T03:19:37;101068.59;;;9.54;100.00
70407;BME280;57821;52.202;0.154;2023-05-10T03:22:10;101063.41;;;9.49;100.00
70407;BME280;57821;52.202;0.154;2023-05-10T03:24:39;101067.66;;;9.44;100.00
70407;BME280;57821;52.202;0.154;2023-05-10T03:27:09;101065.91;;;9.40;100.00
70407;BME280;57821;52.202;0.154;2023-05-10T03:29:37;101057.25;;;9.30;100.00
70407;BME280;57821;52.202;0.154;2023-05-10T03:32:06;101067.63;;;9.38;100.00
70407;BME280;57821;52.202;0.154;2023-05-10T03:34:32;101065.91;;;9.37;100.00
70407;BME280;57821;52.202;0.154;2023-05-10T03:36:59;101064.16;;;9.33;100.00
70407;BME280;57821;52.202;0.154;2023-05-10T03:39:29;101065.00;;;9.30;100.00
70407;BME280;57821;52.202;0.154;2023-05-10T03:41:58;101069.34;;;9.31;100.00
70407;BME280;57821;52.202;0.154;2023-05-10T03:44:25;101064.09;;;9.27;100.00
70407;BME280;57821;52.202;0.154;2023-05-10T03:46:51;101064.09;;;9.24;100.00
70407;BME280;57821;52.202;0.154;2023-05-10T03:49:18;101075.31;;;9.27;100.00
70407;BME280;57821;52.202;0.154;2023-05-10T03:51:45;101072.72;;;9.23;100.00
70407;BME280;57821;52.202;0.154;2023-05-10T03:54:11;101063.19;;;9.14;100.00
70407;BME280;57821;52.202;0.154;2023-05-10T03:56:38;101070.06;;;9.14;100.00
70407;BME280;57821;52.202;0.154;2023-05-10T03:59:05;101081.31;;;9.19;100.00
70407;BME280;57821;52.202;0.154;2023-05-10T04:01:32;101068.31;;;9.10;100.00
70407;BME280;57821;52.202;0.154;2023-05-10T04:03:58;101081.28;;;9.13;100.00
70407;BME280;57821;52.202;0.154;2023-05-10T04:06:25;101081.28;;;9.13;100.00
70407;BME280;57821;52.202;0.154;2023-05-10T04:08:53;101076.91;;;9.08;100.00
70407;BME280;57821;52.202;0.154;2023-05-10T04:11:20;101074.31;;;9.05;100.00
70407;BME280;57821;52.202;0.154;2023-05-10T04:13:46;101063.91;;;8.99;100.00
70407;BME280;57821;52.202;0.154;2023-05-10T04:16:13;101082.91;;;9.04;100.00
70407;BME280;57821;52.202;0.154;2023-05-10T04:18:39;101072.53;;;8.98;100.00
70407;BME280;57821;52.202;0.154;2023-05-10T04:21:15;101084.63;;;8.99;100.00
70407;BME280;57821;52.202;0.154;2023-05-10T04:23:41;101093.28;;;9.04;100.00
70407;BME280;57821;52.202;0.154;2023-05-10T04:26:08;101090.63;;;8.97;100.00
70407;BME280;57821;52.202;0.154;2023-05-10T04:28:35;101082.88;;;8.95;100.00
70407;BME280;57821;52.202;0.154;2023-05-10T04:31:06;101095.81;;;8.98;100.00
70407;BME280;57821;52.202;0.154;2023-05-10T04:33:33;101080.22;;;8.88;100.00
70407;BME280;57821;52.202;0.154;2023-05-10T04:36:00;101085.41;;;8.91;100.00
70407;BME280;57821;52.202;0.154;2023-05-10T04:38:27;101083.69;;;8.93;100.00
70407;BME280;57821;52.202;0.154;2023-05-10T04:40:54;101100.09;;;8.98;100.00
70407;BME280;57821;52.202;0.154;2023-05-10T04:43:20;101097.47;;;8.92;100.00
70407;BME280;57821;52.202;0.154;2023-05-10T04:45:47;101087.13;;;8.92;100.00
70407;BME280;57821;52.202;0.154;2023-05-10T04:48:13;101088.00;;;8.92;100.00
70407;BME280;57821;52.202;0.154;2023-05-10T04:50:40;101094.91;;;8.90;100.00
70407;BME280;57821;52.202;0.154;2023-05-10T04:53:06;101099.22;;;8.94;100.00
70407;BME280;57821;52.202;0.154;2023-05-10T04:55:33;101095.75;;;8.91;100.00
70407;BME280;57821;52.202;0.154;2023-05-10T04:58:00;101119.13;;;9.01;100.00
70407;BME280;57821;52.202;0.154;2023-05-10T05:00:26;101100.97;;;8.97;100.00
70407;BME280;57821;52.202;0.154;2023-05-10T05:02:54;101095.81;;;8.95;100.00
70407;BME280;57821;52.202;0.154;2023-05-10T05:05:21;101110.50;;;9.01;100.00
70407;BME280;57821;52.202;0.154;2023-05-10T05:07:47;101111.41;;;9.07;100.00
70407;BME280;57821;52.202;0.154;2023-05-10T05:10:14;101110.53;;;9.05;100.00
70407;BME280;57821;52.202;0.154;2023-05-10T05:12:41;101114.88;;;9.08;100.00
70407;BME280;57821;52.202;0.154;2023-05-10T05:15:08;101113.13;;;9.05;100.00
70407;BME280;57821;52.202;0.154;2023-05-10T05:17:35;101133.03;;;9.14;100.00
70407;BME280;57821;52.202;0.154;2023-05-10T05:20:02;101141.66;;;9.18;100.00
70407;BME280;57821;52.202;0.154;2023-05-10T05:22:28;101133.06;;;9.19;100.00
70407;BME280;57821;52.202;0.154;2023-05-10T05:24:56;101144.28;;;9.22;100.00
70407;BME280;57821;52.202;0.154;2023-05-10T05:27:22;101142.56;;;9.20;100.00
70407;BME280;57821;52.202;0.154;2023-05-10T05:29:53;101144.34;;;9.25;100.00
70407;BME280;57821;52.202;0.154;2023-05-10T05:32:20;101151.25;;;9.29;100.00
70407;BME280;57821;52.202;0.154;2023-05-10T05:34:47;101153.03;;;9.35;100.00
70407;BME280;57821;52.202;0.154;2023-05-10T05:37:15;101149.56;;;9.34;100.00
70407;BME280;57821;52.202;0.154;2023-05-10T05:39:42;101159.09;;;9.40;100.00
70407;BME280;57821;52.202;0.154;2023-05-10T05:42:09;101160.84;;;9.44;100.00
70407;BME280;57821;52.202;0.154;2023-05-10T05:44:36;101177.28;;;9.51;100.00
70407;BME280;57821;52.202;0.154;2023-05-10T05:47:03;101170.38;;;9.51;100.00
70407;BME280;57821;52.202;0.154;2023-05-10T05:49:29;101170.44;;;9.54;100.00
70407;BME280;57821;52.202;0.154;2023-05-10T05:52:00;101177.38;;;9.60;100.00
70407;BME280;57821;52.202;0.154;2023-05-10T05:54:27;101160.94;;;9.56;100.00
70407;BME280;57821;52.202;0.154;2023-05-10T05:56:54;101173.09;;;9.65;100.00
70407;BME280;57821;52.202;0.154;2023-05-10T05:59:21;101180.03;;;9.70;100.00
70407;BME280;57821;52.202;0.154;2023-05-10T06:01:48;101173.09;;;9.66;100.00
70407;BME280;57821;52.202;0.154;2023-05-10T06:04:15;101186.09;;;9.75;100.00
70407;BME280;57821;52.202;0.154;2023-05-10T06:06:42;101182.63;;;9.75;100.00
70407;BME280;57821;52.202;0.154;2023-05-10T06:09:09;101175.72;;;9.72;100.00
70407;BME280;57821;52.202;0.154;2023-05-10T06:11:36;101192.16;;;9.80;100.00
70407;BME280;57821;52.202;0.154;2023-05-10T06:14:03;101175.72;;;9.71;100.00
70407;BME280;57821;52.202;0.154;2023-05-10T06:16:31;101193.91;;;9.81;100.00
70407;BME280;57821;52.202;0.154;2023-05-10T06:18:57;101198.25;;;9.84;100.00
70407;BME280;57821;52.202;0.154;2023-05-10T06:21:24;101193.91;;;9.84;100.00
70407;BME280;57821;52.202;0.154;2023-05-10T06:23:51;101205.16;;;9.86;100.00
70407;BME280;57821;52.202;0.154;2023-05-10T06:26:17;101191.31;;;9.81;100.00
70407;BME280;57821;52.202;0.154;2023-05-10T06:28:44;101199.09;;;9.84;100.00
70407;BME280;57821;52.202;0.154;2023-05-10T06:31:10;101198.22;;;9.81;100.00
70407;BME280;57821;52.202;0.154;2023-05-10T06:33:37;101199.09;;;9.84;100.00
70407;BME280;57821;52.202;0.154;2023-05-10T06:36:03;101206.03;;;9.88;100.00
70407;BME280;57821;52.202;0.154;2023-05-10T06:38:30;101202.59;;;9.89;100.00
70407;BME280;57821;52.202;0.154;2023-05-10T06:40:57;101219.06;;;10.01;100.00
70407;BME280;57821;52.202;0.154;2023-05-10T06:43:23;101219.06;;;10.04;100.00
70407;BME280;57821;52.202;0.154;2023-05-10T06:45:50;101212.22;;;10.07;100.00
70407;BME280;57821;52.202;0.154;2023-05-10T06:48:17;101219.97;;;10.10;100.00
70407;BME280;57821;52.202;0.154;2023-05-10T06:50:43;101221.81;;;10.19;100.00
70407;BME280;57821;52.202;0.154;2023-05-10T06:53:10;101213.16;;;10.17;100.00
70407;BME280;57821;52.202;0.154;2023-05-10T06:55:36;101211.44;;;10.22;100.00
70407;BME280;57821;52.202;0.154;2023-05-10T06:58:03;101226.19;;;10.38;100.00
70407;BME280;57821;52.202;0.154;2023-05-10T07:00:29;101228.81;;;10.44;100.00
70407;BME280;57821;52.202;0.154;2023-05-10T07:02:56;101223.66;;;10.50;100.00
70407;BME280;57821;52.202;0.154;2023-05-10T07:05:23;101222.81;;;10.57;100.00
70407;BME280;57821;52.202;0.154;2023-05-10T07:07:49;101233.25;;;10.69;100.00
70407;BME280;57821;52.202;0.154;2023-05-10T07:10:16;101228.94;;;10.78;100.00
70407;BME280;57821;52.202;0.154;2023-05-10T07:12:43;101228.97;;;10.87;100.00
70407;BME280;57821;52.202;0.154;2023-05-10T07:15:10;101231.56;;;10.91;100.00
70407;BME280;57821;52.202;0.154;2023-05-10T07:17:36;101228.13;;;10.98;100.00
70407;BME280;57821;52.202;0.154;2023-05-10T07:20:03;101230.72;;;11.03;100.00
70407;BME280;57821;52.202;0.154;2023-05-10T07:22:30;101223.81;;;11.08;100.00
70407;BME280;57821;52.202;0.154;2023-05-10T07:24:57;101229.03;;;11.16;100.00
70407;BME280;57821;52.202;0.154;2023-05-10T07:27:24;101229.03;;;11.26;100.00
70407;BME280;57821;52.202;0.154;2023-05-10T07:29:50;101234.25;;;11.32;100.00
70407;BME280;57821;52.202;0.154;2023-05-10T07:32:17;101222.13;;;11.34;100.00
70407;BME280;57821;52.202;0.154;2023-05-10T07:34:43;101230.78;;;11.45;100.00
70407;BME280;57821;52.202;0.154;2023-05-10T07:37:10;101237.69;;;11.54;100.00
70407;BME280;57821;52.202;0.154;2023-05-10T07:39:36;101235.13;;;11.57;100.00
70407;BME280;57821;52.202;0.154;2023-05-10T07:42:03;101236.00;;;11.70;100.00
70407;BME280;57821;52.202;0.154;2023-05-10T07:44:30;101224.72;;;11.72;100.00
70407;BME280;57821;52.202;0.154;2023-05-10T07:46:56;101230.81;;;11.79;100.00
70407;BME280;57821;52.202;0.154;2023-05-10T07:49:23;101235.97;;;11.94;100.00
70407;BME280;57821;52.202;0.154;2023-05-10T07:51:49;101232.50;;;12.03;100.00
70407;BME280;57821;52.202;0.154;2023-05-10T07:54:16;101237.69;;;12.10;100.00
70407;BME280;57821;52.202;0.154;2023-05-10T07:56:43;101232.47;;;12.16;100.00
70407;BME280;57821;52.202;0.154;2023-05-10T07:59:09;101226.38;;;12.20;100.00
70407;BME280;57821;52.202;0.154;2023-05-10T08:01:38;101242.81;;;12.34;100.00
70407;BME280;57821;52.202;0.154;2023-05-10T08:04:04;101235.84;;;12.43;100.00
70407;BME280;57821;52.202;0.154;2023-05-10T08:06:31;101245.34;;;12.53;100.00
70407;BME280;57821;52.202;0.154;2023-05-10T08:08:58;101235.81;;;12.58;100.00
70407;BME280;57821;52.202;0.154;2023-05-10T08:11:24;101240.06;;;12.74;100.00
70407;BME280;57821;52.202;0.154;2023-05-10T08:13:51;101225.31;;;12.73;100.00
70407;BME280;57821;52.202;0.154;2023-05-10T08:16:18;101247.78;;;12.92;100.00
70407;BME280;57821;52.202;0.154;2023-05-10T08:18:45;101244.28;;;12.96;100.00
70407;BME280;57821;52.202;0.154;2023-05-10T08:21:13;101252.88;;;13.07;100.00
70407;BME280;57821;52.202;0.154;2023-05-10T08:23:39;101228.63;;;13.02;100.00
70407;BME280;57821;52.202;0.154;2023-05-10T08:26:06;101239.81;;;13.16;100.00
70407;BME280;57821;52.202;0.154;2023-05-10T08:28:33;101241.47;;;13.28;100.00
70407;BME280;57821;52.202;0.154;2023-05-10T08:30:59;101248.34;;;13.44;100.00
70407;BME280;57821;52.202;0.154;2023-05-10T08:33:26;101232.66;;;13.50;100.00
70407;BME280;57821;52.202;0.154;2023-05-10T08:35:52;101251.63;;;13.63;100.00
70407;BME280;57821;52.202;0.154;2023-05-10T08:38:19;101253.31;;;13.69;100.00
70407;BME280;57821;52.202;0.154;2023-05-10T08:40:48;101249.81;;;13.74;100.00
70407;BME280;57821;52.202;0.154;2023-05-10T08:43:15;101248.91;;;13.75;100.00
70407;BME280;57821;52.202;0.154;2023-05-10T08:45:43;101254.84;;;13.92;100.00
70407;BME280;57821;52.202;0.154;2023-05-10T08:48:10;101252.22;;;13.97;100.00
70407;BME280;57821;52.202;0.154;2023-05-10T08:50:39;101247.72;;;14.10;100.00
70407;BME280;57821;52.202;0.154;2023-05-10T08:53:11;101252.84;;;14.20;100.00
70407;BME280;57821;52.202;0.154;2023-05-10T08:55:39;101267.44;;;14.35;100.00
70407;BME280;57821;52.202;0.154;2023-05-10T08:58:06;101260.44;;;14.43;100.00
70407;BME280;57821;52.202;0.154;2023-05-10T09:00:33;101248.22;;;14.45;100.00
70407;BME280;57821;52.202;0.154;2023-05-10T09:03:01;101268.06;;;14.61;100.00
70407;BME280;57821;52.202;0.154;2023-05-10T09:05:28;101265.19;;;14.79;100.00
70407;BME280;57821;52.202;0.154;2023-05-10T09:07:55;101261.59;;;14.90;100.00
70407;BME280;57821;52.202;0.154;2023-05-10T09:10:22;101276.34;;;14.94;100.00
70407;BME280;57821;52.202;0.154;2023-05-10T09:12:50;101266.69;;;14.99;100.00
70407;BME280;57821;52.202;0.154;2023-05-10T09:15:16;101259.63;;;15.07;100.00
70407;BME280;57821;52.202;0.154;2023-05-10T09:17:44;101266.31;;;15.25;100.00
70407;BME280;57821;52.202;0.154;2023-05-10T09:20:11;101255.66;;;15.38;100.00
70407;BME280;57821;52.202;0.154;2023-05-10T09:22:37;101259.06;;;15.43;100.00
70407;BME280;57821;52.202;0.154;2023-05-10T09:27:30;101275.88;;;15.84;100.00
70407;BME280;57821;52.202;0.154;2023-05-10T09:29:57;101263.28;;;16.06;100.00
70407;BME280;57821;52.202;0.154;2023-05-10T09:32:57;101269.81;;;16.29;100.00
70407;BME280;57821;52.202;0.154;2023-05-10T09:35:26;101269.91;;;16.25;100.00
70407;BME280;57821;52.202;0.154;2023-05-10T09:38:03;101275.09;;;16.26;100.00
70407;BME280;57821;52.202;0.154;2023-05-10T09:40:31;101267.84;;;16.40;100.00
70407;BME280;57821;52.202;0.154;2023-05-10T09:45:31;101260.53;;;16.56;100.00
70407;BME280;57821;52.202;0.154;2023-05-10T09:48:02;101270.66;;;16.76;100.00
70407;BME280;57821;52.202;0.154;2023-05-10T09:50:29;101262.97;;;17.07;100.00
70407;BME280;57821;52.202;0.154;2023-05-10T09:52:58;101256.38;;;17.29;100.00
70407;BME280;57821;52.202;0.154;2023-05-10T09:55:48;101256.72;;;17.51;100.00
70407;BME280;57821;52.202;0.154;2023-05-10T09:58:13;101261.59;;;17.66;100.00
70407;BME280;57821;52.202;0.154;2023-05-10T10:00:41;101266.63;;;17.75;100.00
70407;BME280;57821;52.202;0.154;2023-05-10T10:03:16;101275.09;;;17.86;100.00
70407;BME280;57821;52.202;0.154;2023-05-10T10:05:44;101259.19;;;17.92;100.00
70407;BME280;57821;52.202;0.154;2023-05-10T10:08:11;101257.94;;;18.05;100.00
70407;BME280;57821;52.202;0.154;2023-05-10T10:10:38;101265.59;;;18.15;100.00
70407;BME280;57821;52.202;0.154;2023-05-10T10:13:06;101261.56;;;18.34;100.00
70407;BME280;57821;52.202;0.154;2023-05-10T10:15:35;101259.81;;;18.65;100.00
70407;BME280;57821;52.202;0.154;2023-05-10T10:18:03;101264.63;;;18.80;100.00
70407;BME280;57821;52.202;0.154;2023-05-10T10:20:29;101263.81;;;18.78;100.00
70407;BME280;57821;52.202;0.154;2023-05-10T10:22:56;101263.66;;;18.83;100.00
70407;BME280;57821;52.202;0.154;2023-05-10T10:25:23;101256.09;;;19.02;100.00
70407;BME280;57821;52.202;0.154;2023-05-10T10:30:35;101268.97;;;19.66;100.00
70407;BME280;57821;52.202;0.154;2023-05-10T10:35:42;101257.16;;;19.78;100.00
70407;BME280;57821;52.202;0.154;2023-05-10T10:38:12;101257.75;;;19.86;100.00
70407;BME280;57821;52.202;0.154;2023-05-10T10:40:39;101264.44;;;19.96;100.00
70407;BME280;57821;52.202;0.154;2023-05-10T10:43:25;101261.75;;;20.23;100.00
70407;BME280;57821;52.202;0.154;2023-05-10T10:48:37;101266.63;;;20.58;93.16
70407;BME280;57821;52.202;0.154;2023-05-10T10:51:04;101262.09;;;20.62;91.82
70407;BME280;57821;52.202;0.154;2023-05-10T10:53:30;101246.63;;;20.76;96.01
70407;BME280;57821;52.202;0.154;2023-05-10T10:56:12;101253.84;;;20.94;100.00
70407;BME280;57821;52.202;0.154;2023-05-10T10:58:39;101254.75;;;20.93;92.62
70407;BME280;57821;52.202;0.154;2023-05-10T11:03:39;101242.63;;;21.11;91.61
70407;BME280;57821;52.202;0.154;2023-05-10T11:06:06;101246.66;;;21.43;88.33
70407;BME280;57821;52.202;0.154;2023-05-10T11:08:35;101256.38;;;21.62;91.55
70407;BME280;57821;52.202;0.154;2023-05-10T11:11:07;101247.69;;;21.60;83.58
70407;BME280;57821;52.202;0.154;2023-05-10T11:13:34;101254.66;;;21.61;88.66
70407;BME280;57821;52.202;0.154;2023-05-10T11:16:23;101244.03;;;21.43;100.00
70407;BME280;57821;52.202;0.154;2023-05-10T11:19:01;101254.41;;;21.02;100.00
70407;BME280;57821;52.202;0.154;2023-05-10T11:21:30;101251.91;;;20.76;86.34
70407;BME280;57821;52.202;0.154;2023-05-10T11:23:58;101243.19;;;20.74;92.02
70407;BME280;57821;52.202;0.154;2023-05-10T11:26:34;101258.97;;;20.97;94.26
70407;BME280;57821;52.202;0.154;2023-05-10T11:29:02;101233.72;;;21.15;90.81
70407;BME280;57821;52.202;0.154;2023-05-10T11:31:28;101245.34;;;21.53;89.86
70407;BME280;57821;52.202;0.154;2023-05-10T11:33:58;101245.41;;;21.93;92.57
70407;BME280;57821;52.202;0.154;2023-05-10T11:36:29;101244.63;;;22.11;97.42
70407;BME280;57821;52.202;0.154;2023-05-10T11:38:59;101248.53;;;22.23;84.58
70407;BME280;57821;52.202;0.154;2023-05-10T11:41:29;101250.53;;;22.37;96.41
70407;BME280;57821;52.202;0.154;2023-05-10T11:43:57;101238.72;;;22.45;85.36
70407;BME280;57821;52.202;0.154;2023-05-10T11:46:25;101246.72;;;22.63;83.89
70407;BME280;57821;52.202;0.154;2023-05-10T11:48:56;101241.91;;;22.72;86.14
70407;BME280;57821;52.202;0.154;2023-05-10T11:51:24;101235.28;;;22.62;77.23
70407;BME280;57821;52.202;0.154;2023-05-10T11:53:53;101245.78;;;22.45;84.93
70407;BME280;57821;52.202;0.154;2023-05-10T11:56:21;101235.75;;;22.33;82.29
70407;BME280;57821;52.202;0.154;2023-05-10T11:58:56;101239.13;;;22.55;100.00
70407;BME280;57821;52.202;0.154;2023-05-10T12:01:27;101241.09;;;22.70;92.36
70407;BME280;57821;52.202;0.154;2023-05-10T12:03:55;101234.47;;;22.80;82.51
70407;BME280;57821;52.202;0.154;2023-05-10T12:06:25;101229.47;;;22.74;81.04
70407;BME280;57821;52.202;0.154;2023-05-10T12:08:52;101233.28;;;22.67;80.74
70407;BME280;57821;52.202;0.154;2023-05-10T12:11:19;101233.63;;;22.41;80.55
70407;BME280;57821;52.202;0.154;2023-05-10T12:13:45;101221.78;;;22.10;81.58
70407;BME280;57821;52.202;0.154;2023-05-10T12:16:13;101235.91;;;21.89;80.92
70407;BME280;57821;52.202;0.154;2023-05-10T12:18:40;101231.25;;;21.54;79.08
70407;BME280;57821;52.202;0.154;2023-05-10T12:21:09;101238.50;;;21.27;86.92
70407;BME280;57821;52.202;0.154;2023-05-10T12:23:36;101226.69;;;20.92;81.92
70407;BME280;57821;52.202;0.154;2023-05-10T12:26:03;101226.78;;;20.67;84.71
70407;BME280;57821;52.202;0.154;2023-05-10T12:28:31;101234.28;;;20.55;82.17
70407;BME280;57821;52.202;0.154;2023-05-10T12:30:59;101236.38;;;20.45;85.46
70407;BME280;57821;52.202;0.154;2023-05-10T12:33:26;101233.34;;;20.32;84.33
70407;BME280;57821;52.202;0.154;2023-05-10T12:35:54;101229.88;;;20.32;90.07
70407;BME280;57821;52.202;0.154;2023-05-10T12:38:41;101234.53;;;20.22;100.00
70407;BME280;57821;52.202;0.154;2023-05-10T12:41:09;101233.38;;;20.06;87.69
70407;BME280;57821;52.202;0.154;2023-05-10T12:43:37;101248.00;;;19.90;78.28
70407;BME280;57821;52.202;0.154;2023-05-10T12:46:07;101235.41;;;19.73;81.31
70407;BME280;57821;52.202;0.154;2023-05-10T12:48:35;101233.03;;;19.65;84.78
70407;BME280;57821;52.202;0.154;2023-05-10T12:51:03;101242.59;;;19.68;81.97
70407;BME280;57821;52.202;0.154;2023-05-10T12:53:30;101231.50;;;19.58;78.76
70407;BME280;57821;52.202;0.154;2023-05-10T12:55:57;101231.34;;;19.63;76.26
70407;BME280;57821;52.202;0.154;2023-05-10T12:58:23;101227.78;;;19.65;76.37
70407;BME280;57821;52.202;0.154;2023-05-10T13:01:01;101230.28;;;19.68;73.38
70407;BME280;57821;52.202;0.154;2023-05-10T13:03:28;101242.81;;;19.62;74.96
70407;BME280;57821;52.202;0.154;2023-05-10T13:05:54;101232.88;;;19.44;69.97
70407;BME280;57821;52.202;0.154;2023-05-10T13:08:21;101237.53;;;19.34;74.38
70407;BME280;57821;52.202;0.154;2023-05-10T13:10:47;101227.53;;;19.19;72.34
70407;BME280;57821;52.202;0.154;2023-05-10T13:13:15;101229.53;;;19.11;77.86
70407;BME280;57821;52.202;0.154;2023-05-10T13:15:41;101227.09;;;19.05;75.37
70407;BME280;57821;52.202;0.154;2023-05-10T13:18:08;101242.06;;;19.03;76.16
70407;BME280;57821;52.202;0.154;2023-05-10T13:20:34;101240.53;;;18.96;75.70